Forseti — V2PV4 — position and weather

sailwx.info

Track history (hours):
 
Tides and Currents Weather Stations Pressure Air Temp Water Temp Dewpoint Dewpoint Depression Visibility Wind Speed Wind Dir Waves Ship Positions

Forseti

Last reported at 2015-Mar-31 17:29 UTC. Time now 2015-Mar-31 18:08 UTC.
Position N 49°12' W 000°19'.

Length 85 m; draft 5.6 m.

Type: Cargo ship. MMSI: 304010297.

Date/timePositionNaut miles runAvg speedWind from/ knotsBaromVisibWave heightAir tempDewpointWater temp
2015-Mar-31 17:29N 49°12' W 000°19'0 0.0
2015-Mar-31 16:32N 49°12' W 000°19'0 0.0
2015-Mar-31 15:29N 49°12' W 000°19'0 0.0
2015-Mar-31 14:32N 49°12' W 000°19'0 0.0
2015-Mar-31 13:29N 49°12' W 000°19'0 0.0
2015-Mar-31 12:29N 49°12' W 000°19'0 0.0
2015-Mar-31 11:29N 49°12' W 000°19'0 0.0
2015-Mar-31 10:32N 49°12' W 000°19'0 0.0
2015-Mar-31 09:29N 49°12' W 000°19'0 0.0
2015-Mar-31 08:32N 49°12' W 000°19'0 0.0
2015-Mar-31 07:29N 49°12' W 000°19'0 0.0
2015-Mar-31 06:29N 49°12' W 000°19'0 0.0
2015-Mar-31 05:20N 49°12' W 000°19'0 0.0
2015-Mar-31 04:32N 49°12' W 000°19'0 0.0
2015-Mar-31 03:32N 49°12' W 000°19'0 0.0
2015-Mar-31 02:29N 49°12' W 000°19'0 0.0
2015-Mar-31 01:32N 49°12' W 000°19'0 0.0
2015-Mar-31 00:29N 49°12' W 000°19'0 0.0
2015-Mar-30 23:29N 49°12' W 000°19'0 0.0
2015-Mar-30 22:29N 49°12' W 000°19'0 0.0
2015-Mar-30 21:32N 49°12' W 000°19'0 0.0
2015-Mar-30 20:32N 49°12' W 000°19'0 0.0
2015-Mar-30 19:29N 49°12' W 000°19'0 0.0
2015-Mar-30 18:29N 49°12' W 000°19'0 0.0
2015-Mar-30 17:29N 49°12' W 000°19'3 3.1
2015-Mar-30 16:33N 49°14' W 000°17'3 3.0
2015-Mar-30 15:33N 49°17' W 000°15'4 4.0
2015-Mar-30 14:33N 49°21' W 000°14'2 2.0
2015-Mar-30 13:33N 49°23' W 000°14'5 4.8
2015-Mar-30 12:33N 49°28' W 000°13'6 5.7
2015-Mar-30 11:33N 49°33' W 000°12'7 7.3
2015-Mar-30 10:33N 49°40' W 000°12'56 7.0
2015-Mar-30 02:33N 50°32' E 000°21'7 6.6
2015-Mar-30 01:29N 50°35' E 000°31'6 6.5
2015-Mar-30 00:33N 50°38' E 000°40'6 6.5
2015-Mar-29 23:33N 50°41' E 000°48'7 6.6
2015-Mar-29 22:33N 50°45' E 000°56'13 6.2
2015-Mar-29 20:32N 50°53' E 001°12'5 5.4
2015-Mar-29 19:33N 50°56' E 001°19'5 4.9
2015-Mar-29 18:34N 50°59' E 001°24'5 4.6
2015-Mar-29 17:33N 51°03' E 001°29'4 4.5
2015-Mar-29 16:34N 51°06' E 001°34'5 4.7
2015-Mar-29 15:33N 51°10' E 001°39'5 5.0
2015-Mar-29 14:33N 51°13' E 001°44'5 4.5
2015-Mar-29 13:33N 51°17' E 001°48'5 5.4
2015-Mar-29 12:34N 51°22' E 001°52'6 6.3
2015-Mar-29 11:34N 51°28' E 001°55'7 6.7
2015-Mar-29 10:34N 51°33' E 002°02'7 7.0
2015-Mar-29 09:31N 51°39' E 002°10'147 6.6
2015-Mar-28 11:21N 53°31' E 004°47'6 8.1
2015-Mar-28 10:33N 53°33' E 004°58'9 8.5
2015-Mar-28 09:33N 53°36' E 005°11'10 9.5
2015-Mar-28 08:33N 53°39' E 005°26'1010.1
2015-Mar-28 07:33N 53°42' E 005°42'1010.2
2015-Mar-28 06:33N 53°46' E 005°58'1010.0
2015-Mar-28 05:33N 53°49' E 006°14'10 9.6
2015-Mar-28 04:31N 53°52' E 006°30'26 8.5
2015-Mar-28 01:28N 53°58' E 007°13'8 8.2
2015-Mar-28 00:33N 53°60' E 007°26'9 8.8
2015-Mar-27 23:33N 54°01' E 007°40'9 9.4
2015-Mar-27 22:33N 54°02' E 007°56'1110.4
2015-Mar-27 21:31N 54°01' E 008°15'1111.8
2015-Mar-27 20:34N 53°58' E 008°33'1110.9
2015-Mar-27 19:33N 53°51' E 008°47'9 9.2
2015-Mar-27 18:33N 53°52' E 009°02'5 4.8
2015-Mar-27 17:33N 53°54' E 009°10'8 7.9
2015-Mar-27 16:33N 54°00' E 009°18'6 5.5
2015-Mar-27 15:33N 54°06' E 009°20'7 6.8
2015-Mar-27 14:30N 54°11' E 009°28'8 7.8
2015-Mar-27 13:31N 54°16' E 009°38'8 8.3
2015-Mar-27 12:32N 54°22' E 009°48'4 3.8
2015-Mar-27 11:33N 54°21' E 009°54'7 6.6
2015-Mar-27 10:33N 54°22' E 010°05'2 2.0
2015-Mar-27 09:33N 54°22' E 010°09'1 1.1
2015-Mar-27 08:33N 54°22' E 010°10'8 8.4
2015-Mar-27 07:33N 54°30' E 010°18'10 9.7
2015-Mar-27 06:33N 54°34' E 010°33'12 9.5
2015-Mar-27 05:14N 54°35' E 010°54'6 9.3
2015-Mar-27 04:33N 54°36' E 011°05'1010.1
2015-Mar-27 03:33N 54°33' E 011°22'10 9.9
2015-Mar-27 02:33N 54°29' E 011°37'10 9.6
2015-Mar-27 01:33N 54°27' E 011°53'10 9.6
2015-Mar-27 00:33N 54°28' E 012°10'10 9.8
2015-Mar-26 23:33N 54°37' E 012°15'10 9.7
2015-Mar-26 22:33N 54°43' E 012°29'10 9.6
2015-Mar-26 21:33N 54°48' E 012°43'11 9.6
2015-Mar-26 20:21N 54°52' E 013°02'19 9.7
2015-Mar-26 18:25N 54°58' E 013°32'8 9.4
2015-Mar-26 17:32N 55°01' E 013°46'9 9.3
2015-Mar-26 16:33N 55°04' E 014°01'9 9.4
2015-Mar-26 15:33N 55°11' E 014°12'10 9.9
2015-Mar-26 14:33N 55°19' E 014°23'10 9.9
2015-Mar-26 13:33N 55°26' E 014°34'9 9.5
2015-Mar-26 12:34N 55°32' E 014°47'9 9.3
2015-Mar-26 11:34N 55°36' E 015°02'9 9.2
2015-Mar-26 10:33N 55°41' E 015°16'  
Track history (hours):
 
Tides and Currents Weather Stations Pressure Air Temp Water Temp Dewpoint Dewpoint Depression Visibility Wind Speed Wind Dir Waves Ship Positions

Forseti

Last reported at 2015-Mar-31 17:29 UTC. Time now 2015-Mar-31 18:08 UTC.
Position N 49°12' W 000°19'.

Length 85 m; draft 5.6 m.

Type: Cargo ship. MMSI: 304010297.

Date/timePositionNaut miles runAvg speedWind from/ knotsBaromVisibWave heightAir tempDewpointWater temp
2015-Mar-31 17:29N 49°12' W 000°19'0 0.0
2015-Mar-31 16:32N 49°12' W 000°19'0 0.0
2015-Mar-31 15:29N 49°12' W 000°19'0 0.0
2015-Mar-31 14:32N 49°12' W 000°19'0 0.0
2015-Mar-31 13:29N 49°12' W 000°19'0 0.0
2015-Mar-31 12:29N 49°12' W 000°19'0 0.0
2015-Mar-31 11:29N 49°12' W 000°19'0 0.0
2015-Mar-31 10:32N 49°12' W 000°19'0 0.0
2015-Mar-31 09:29N 49°12' W 000°19'0 0.0
2015-Mar-31 08:32N 49°12' W 000°19'0 0.0
2015-Mar-31 07:29N 49°12' W 000°19'0 0.0
2015-Mar-31 06:29N 49°12' W 000°19'0 0.0
2015-Mar-31 05:20N 49°12' W 000°19'0 0.0
2015-Mar-31 04:32N 49°12' W 000°19'0 0.0
2015-Mar-31 03:32N 49°12' W 000°19'0 0.0
2015-Mar-31 02:29N 49°12' W 000°19'0 0.0
2015-Mar-31 01:32N 49°12' W 000°19'0 0.0
2015-Mar-31 00:29N 49°12' W 000°19'0 0.0
2015-Mar-30 23:29N 49°12' W 000°19'0 0.0
2015-Mar-30 22:29N 49°12' W 000°19'0 0.0
2015-Mar-30 21:32N 49°12' W 000°19'0 0.0
2015-Mar-30 20:32N 49°12' W 000°19'0 0.0
2015-Mar-30 19:29N 49°12' W 000°19'0 0.0
2015-Mar-30 18:29N 49°12' W 000°19'0 0.0
2015-Mar-30 17:29N 49°12' W 000°19'3 3.1
2015-Mar-30 16:33N 49°14' W 000°17'3 3.0
2015-Mar-30 15:33N 49°17' W 000°15'4 4.0
2015-Mar-30 14:33N 49°21' W 000°14'2 2.0
2015-Mar-30 13:33N 49°23' W 000°14'5 4.8
2015-Mar-30 12:33N 49°28' W 000°13'6 5.7
2015-Mar-30 11:33N 49°33' W 000°12'7 7.3
2015-Mar-30 10:33N 49°40' W 000°12'56 7.0
2015-Mar-30 02:33N 50°32' E 000°21'7 6.6
2015-Mar-30 01:29N 50°35' E 000°31'6 6.5
2015-Mar-30 00:33N 50°38' E 000°40'6 6.5
2015-Mar-29 23:33N 50°41' E 000°48'7 6.6
2015-Mar-29 22:33N 50°45' E 000°56'13 6.2
2015-Mar-29 20:32N 50°53' E 001°12'5 5.4
2015-Mar-29 19:33N 50°56' E 001°19'5 4.9
2015-Mar-29 18:34N 50°59' E 001°24'5 4.6
2015-Mar-29 17:33N 51°03' E 001°29'4 4.5
2015-Mar-29 16:34N 51°06' E 001°34'5 4.7
2015-Mar-29 15:33N 51°10' E 001°39'5 5.0
2015-Mar-29 14:33N 51°13' E 001°44'5 4.5
2015-Mar-29 13:33N 51°17' E 001°48'5 5.4
2015-Mar-29 12:34N 51°22' E 001°52'6 6.3
2015-Mar-29 11:34N 51°28' E 001°55'7 6.7
2015-Mar-29 10:34N 51°33' E 002°02'7 7.0
2015-Mar-29 09:31N 51°39' E 002°10'147 6.6
2015-Mar-28 11:21N 53°31' E 004°47'6 8.1
2015-Mar-28 10:33N 53°33' E 004°58'9 8.5
2015-Mar-28 09:33N 53°36' E 005°11'10 9.5
2015-Mar-28 08:33N 53°39' E 005°26'1010.1
2015-Mar-28 07:33N 53°42' E 005°42'1010.2
2015-Mar-28 06:33N 53°46' E 005°58'1010.0
2015-Mar-28 05:33N 53°49' E 006°14'10 9.6
2015-Mar-28 04:31N 53°52' E 006°30'26 8.5
2015-Mar-28 01:28N 53°58' E 007°13'8 8.2
2015-Mar-28 00:33N 53°60' E 007°26'9 8.8
2015-Mar-27 23:33N 54°01' E 007°40'9 9.4
2015-Mar-27 22:33N 54°02' E 007°56'1110.4
2015-Mar-27 21:31N 54°01' E 008°15'1111.8
2015-Mar-27 20:34N 53°58' E 008°33'1110.9
2015-Mar-27 19:33N 53°51' E 008°47'9 9.2
2015-Mar-27 18:33N 53°52' E 009°02'5 4.8
2015-Mar-27 17:33N 53°54' E 009°10'8 7.9
2015-Mar-27 16:33N 54°00' E 009°18'6 5.5
2015-Mar-27 15:33N 54°06' E 009°20'7 6.8
2015-Mar-27 14:30N 54°11' E 009°28'8 7.8
2015-Mar-27 13:31N 54°16' E 009°38'8 8.3
2015-Mar-27 12:32N 54°22' E 009°48'4 3.8
2015-Mar-27 11:33N 54°21' E 009°54'7 6.6
2015-Mar-27 10:33N 54°22' E 010°05'2 2.0
2015-Mar-27 09:33N 54°22' E 010°09'1 1.1
2015-Mar-27 08:33N 54°22' E 010°10'8 8.4
2015-Mar-27 07:33N 54°30' E 010°18'10 9.7
2015-Mar-27 06:33N 54°34' E 010°33'12 9.5
2015-Mar-27 05:14N 54°35' E 010°54'6 9.3
2015-Mar-27 04:33N 54°36' E 011°05'1010.1
2015-Mar-27 03:33N 54°33' E 011°22'10 9.9
2015-Mar-27 02:33N 54°29' E 011°37'10 9.6
2015-Mar-27 01:33N 54°27' E 011°53'10 9.6
2015-Mar-27 00:33N 54°28' E 012°10'10 9.8
2015-Mar-26 23:33N 54°37' E 012°15'10 9.7
2015-Mar-26 22:33N 54°43' E 012°29'10 9.6
2015-Mar-26 21:33N 54°48' E 012°43'11 9.6
2015-Mar-26 20:21N 54°52' E 013°02'19 9.7
2015-Mar-26 18:25N 54°58' E 013°32'8 9.4
2015-Mar-26 17:32N 55°01' E 013°46'9 9.3
2015-Mar-26 16:33N 55°04' E 014°01'9 9.4
2015-Mar-26 15:33N 55°11' E 014°12'10 9.9
2015-Mar-26 14:33N 55°19' E 014°23'10 9.9
2015-Mar-26 13:33N 55°26' E 014°34'9 9.5
2015-Mar-26 12:34N 55°32' E 014°47'9 9.3
2015-Mar-26 11:34N 55°36' E 015°02'9 9.2
2015-Mar-26 10:33N 55°41' E 015°16'  

Dump ship's entire track history